createdAt,value
2018-08-19T00:02:15.999Z,100343.43
2018-08-19T00:04:52.237Z,100340.44
2018-08-19T00:07:21.021Z,100352.08
2018-08-19T00:09:49.804Z,100353.64
2018-08-19T00:12:27.627Z,100360.95
2018-08-19T00:14:58.159Z,100354.94
2018-08-19T00:17:26.954Z,100341.59
2018-08-19T00:19:55.715Z,100340.50
2018-08-19T00:22:24.534Z,100337.51
2018-08-19T00:24:53.310Z,100327.70
2018-08-19T00:27:22.203Z,100330.14
2018-08-19T00:29:51.223Z,100336.91
2018-08-19T00:32:20.864Z,100329.86
2018-08-19T00:34:49.683Z,100333.36
2018-08-19T00:37:19.049Z,100332.56
2018-08-19T00:39:48.993Z,100327.96
2018-08-19T00:42:17.956Z,100336.91
2018-08-19T00:44:46.883Z,100340.16
2018-08-19T00:47:16.499Z,100339.88
2018-08-19T00:49:45.523Z,100332.80
2018-08-19T00:52:15.556Z,100340.42
2018-08-19T00:54:45.559Z,100336.89
2018-08-19T00:57:15.290Z,100339.91
2018-08-19T00:59:44.083Z,100338.30
2018-08-19T01:02:14.608Z,100329.88
2018-08-19T01:04:43.439Z,100328.50
2018-08-19T01:07:12.224Z,100340.16
2018-08-19T01:09:41.090Z,100328.73
2018-08-19T01:12:09.870Z,100325.48
2018-08-19T01:14:38.768Z,100321.11
2018-08-19T01:17:07.734Z,100320.80
2018-08-19T01:19:36.548Z,100329.19
2018-08-19T01:22:05.367Z,100324.27
2018-08-19T01:24:35.130Z,100325.63
2018-08-19T01:27:04.167Z,100324.27
2018-08-19T01:29:38.288Z,100330.00
2018-08-19T01:32:12.859Z,100327.86
2018-08-19T01:35:12.951Z,100321.08
2018-08-19T01:37:42.087Z,100327.32
2018-08-19T01:40:14.935Z,100323.22
2018-08-19T01:42:43.749Z,100320.80
2018-08-19T01:45:12.592Z,100333.53
2018-08-19T01:47:42.293Z,100322.66
2018-08-19T01:50:13.244Z,100322.09
2018-08-19T01:52:43.556Z,100328.34
2018-08-19T01:55:12.875Z,100323.77
2018-08-19T01:57:45.192Z,100319.98
2018-08-19T02:00:15.699Z,100330.03
2018-08-19T02:03:03.037Z,100331.64
2018-08-19T02:05:31.852Z,100331.92
2018-08-19T02:08:01.999Z,100327.86
2018-08-19T02:10:31.659Z,100332.74
2018-08-19T02:13:00.850Z,100329.49
2018-08-19T02:15:30.874Z,100328.42
2018-08-19T02:18:31.251Z,100328.17
2018-08-19T02:21:00.044Z,100326.78
2018-08-19T02:23:28.868Z,100329.21
2018-08-19T02:25:57.698Z,100330.54
2018-08-19T02:28:26.517Z,100330.26
2018-08-19T02:31:00.157Z,100330.80
2018-08-19T02:33:36.452Z,100336.47
2018-08-19T02:36:06.707Z,100332.66
2018-08-19T02:38:36.409Z,100331.59
2018-08-19T02:41:05.913Z,100336.22
2018-08-19T02:43:34.952Z,100338.36
2018-08-19T02:46:04.645Z,100338.87
2018-08-19T02:48:46.844Z,100337.48
2018-08-19T02:51:17.057Z,100342.88
2018-08-19T02:53:47.971Z,100355.58
2018-08-19T02:56:18.366Z,100356.02
2018-08-19T02:58:47.953Z,100359.48
2018-08-19T03:01:18.573Z,100368.11
2018-08-19T03:03:48.007Z,100355.85
2018-08-19T03:06:17.098Z,100364.77
2018-08-19T03:08:47.122Z,100368.01
2018-08-19T03:11:19.986Z,100361.73
2018-08-19T03:13:49.591Z,100369.01
2018-08-19T03:16:18.483Z,100370.33
2018-08-19T03:18:50.758Z,100371.92
2018-08-19T03:21:20.736Z,100366.69
2018-08-19T03:23:51.542Z,100380.19
2018-08-19T03:26:20.440Z,100391.80
2018-08-19T03:28:49.591Z,100397.50
2018-08-19T03:31:18.675Z,100392.01
2018-08-19T03:33:49.110Z,100400.34
2018-08-19T03:36:18.051Z,100401.37
2018-08-19T03:38:47.120Z,100404.64
2018-08-19T03:41:15.992Z,100399.48
2018-08-19T03:43:49.136Z,100408.47
2018-08-19T03:46:21.759Z,100402.23
2018-08-19T03:48:51.134Z,100410.88
2018-08-19T03:51:20.256Z,100419.30
2018-08-19T03:53:49.995Z,100413.63
2018-08-19T03:56:25.459Z,100407.64
2018-08-19T03:58:57.825Z,100413.02
2018-08-19T04:01:45.999Z,100414.36
2018-08-19T04:04:17.392Z,100412.97
2018-08-19T04:06:46.223Z,100414.48
2018-08-19T04:09:14.973Z,100416.89
2018-08-19T04:11:43.894Z,100425.02
2018-08-19T04:14:28.725Z,100417.92
2018-08-19T04:17:00.477Z,100420.00
2018-08-19T04:19:29.871Z,100427.26
2018-08-19T04:22:01.309Z,100419.08
2018-08-19T04:24:30.950Z,100428.52
2018-08-19T04:27:01.148Z,100421.67
2018-08-19T04:29:30.143Z,100425.67
2018-08-19T04:31:58.925Z,100434.32
2018-08-19T04:34:28.665Z,100433.98
2018-08-19T04:36:57.445Z,100432.34
2018-08-19T04:39:26.223Z,100438.00
2018-08-19T04:41:55.092Z,100442.25
2018-08-19T04:44:24.029Z,100439.26
2018-08-19T04:46:53.388Z,100440.61
2018-08-19T04:49:22.142Z,100436.30
2018-08-19T04:51:51.112Z,100447.37
2018-08-19T04:54:20.569Z,100442.59
2018-08-19T04:56:50.768Z,100448.81
2018-08-19T04:59:20.703Z,100467.37
2018-08-19T05:01:49.743Z,100462.00
2018-08-19T05:04:19.020Z,100466.64
2018-08-19T05:06:47.837Z,100463.45
2018-08-19T05:09:16.604Z,100465.43
2018-08-19T05:11:45.435Z,100471.66
2018-08-19T05:14:14.173Z,100475.28
2018-08-19T05:16:43.092Z,100472.14
2018-08-19T05:19:12.422Z,100474.07
2018-08-19T05:21:41.242Z,100477.88
2018-08-19T05:24:09.948Z,100474.24
2018-08-19T05:26:38.767Z,100480.86
2018-08-19T05:29:09.170Z,100478.85
2018-08-19T05:31:48.217Z,100477.48
2018-08-19T05:34:49.061Z,100474.53
2018-08-19T05:37:17.799Z,100479.50
2018-08-19T05:39:57.689Z,100470.91
2018-08-19T05:42:26.635Z,100478.91
2018-08-19T05:44:55.875Z,100474.34
2018-08-19T05:47:25.460Z,100476.20
2018-08-19T05:49:54.236Z,100478.13
2018-08-19T05:52:24.149Z,100475.48
2018-08-19T05:54:59.250Z,100458.29
2018-08-19T05:57:29.883Z,100469.45
2018-08-19T06:00:00.287Z,100467.95
2018-08-19T06:02:35.176Z,100469.33
2018-08-19T06:05:04.519Z,100475.98
2018-08-19T06:07:33.463Z,100476.11
2018-08-19T06:10:02.276Z,100472.43
2018-08-19T06:12:31.190Z,100483.77
2018-08-19T06:15:01.287Z,100482.35
2018-08-19T06:17:31.268Z,100478.31
2018-08-19T06:20:00.028Z,100486.42
2018-08-19T06:22:39.185Z,100492.41
2018-08-19T06:25:08.193Z,100492.67
2018-08-19T06:27:45.728Z,100494.91
2018-08-19T06:30:15.383Z,100502.45
2018-08-19T06:32:45.315Z,100496.65
2018-08-19T06:35:14.591Z,100482.34
2018-08-19T06:37:43.387Z,100482.60
2018-08-19T06:40:17.153Z,100491.63
2018-08-19T06:42:46.276Z,100491.37
2018-08-19T06:45:15.490Z,100488.73
2018-08-19T06:47:45.152Z,100491.90
2018-08-19T06:50:21.375Z,100487.03
2018-08-19T06:52:51.359Z,100490.23
2018-08-19T06:55:21.319Z,100495.92
2018-08-19T06:57:51.078Z,100506.27
2018-08-19T07:00:27.881Z,100495.35
2018-08-19T07:02:59.972Z,100487.52
2018-08-19T07:05:29.099Z,100495.72
2018-08-19T07:07:57.904Z,100492.30
2018-08-19T07:10:41.511Z,100498.05
2018-08-19T07:13:15.593Z,100489.99
2018-08-19T07:15:45.065Z,100498.48
2018-08-19T07:18:16.252Z,100495.02
2018-08-19T07:20:45.602Z,100493.63
2018-08-19T07:23:14.432Z,100498.21
2018-08-19T07:25:44.489Z,100495.49
2018-08-19T07:28:14.774Z,100499.20
2018-08-19T07:30:44.654Z,100495.13
2018-08-19T07:33:14.588Z,100500.75
2018-08-19T07:35:43.637Z,100508.01
2018-08-19T07:38:12.504Z,100516.64
2018-08-19T07:40:41.340Z,100512.00
2018-08-19T07:43:10.231Z,100500.02
2018-08-19T07:45:39.583Z,100515.18
2018-08-19T07:48:08.526Z,100514.08
2018-08-19T07:50:37.242Z,100519.39
2018-08-19T07:53:06.778Z,100521.22
2018-08-19T07:55:36.243Z,100521.41
2018-08-19T07:58:05.931Z,100526.59
2018-08-19T08:00:39.374Z,100522.25
2018-08-19T08:03:09.192Z,100511.37
2018-08-19T08:05:43.172Z,100514.83
2018-08-19T08:08:11.943Z,100523.39
2018-08-19T08:10:40.740Z,100520.23
2018-08-19T08:13:10.835Z,100518.66
2018-08-19T08:15:45.664Z,100515.47
2018-08-19T08:18:15.648Z,100519.55
2018-08-19T08:20:44.439Z,100506.78
2018-08-19T08:23:22.639Z,100507.89
2018-08-19T08:25:51.688Z,100507.69
2018-08-19T08:28:23.672Z,100513.71
2018-08-19T08:30:52.514Z,100518.09
2018-08-19T08:33:22.243Z,100519.17
2018-08-19T08:35:56.277Z,100514.27
2018-08-19T08:38:25.144Z,100511.28
2018-08-19T08:40:54.267Z,100516.13
2018-08-19T08:43:24.517Z,100518.86
2018-08-19T08:45:56.711Z,100509.55
2018-08-19T08:48:25.582Z,100510.87
2018-08-19T08:50:54.416Z,100521.51
2018-08-19T08:53:31.545Z,100513.91
2018-08-19T08:56:01.281Z,100515.34
2018-08-19T08:58:30.048Z,100516.98
2018-08-19T09:00:59.452Z,100518.61
2018-08-19T09:03:30.751Z,100516.16
2018-08-19T09:05:59.576Z,100523.23
2018-08-19T09:08:28.578Z,100522.99
2018-08-19T09:10:59.212Z,100518.07
2018-08-19T09:13:28.202Z,100525.41
2018-08-19T09:15:57.048Z,100524.05
2018-08-19T09:18:26.397Z,100521.06
2018-08-19T09:20:55.341Z,100524.34
2018-08-19T09:23:24.193Z,100515.33
2018-08-19T09:25:52.974Z,100522.98
2018-08-19T09:28:22.075Z,100524.61
2018-08-19T09:30:51.711Z,100524.35
2018-08-19T09:33:21.659Z,100521.61
2018-08-19T09:35:51.353Z,100522.40
2018-08-19T09:38:22.230Z,100531.36
2018-08-19T09:40:51.751Z,100517.45
2018-08-19T09:43:21.024Z,100519.63
2018-08-19T09:45:51.587Z,100525.32
2018-08-19T09:48:20.740Z,100526.63
2018-08-19T09:50:49.942Z,100511.34
2018-08-19T09:53:20.985Z,100520.13
2018-08-19T09:56:08.642Z,100521.81
2018-08-19T09:58:38.287Z,100503.55
2018-08-19T10:01:12.719Z,100505.42
2018-08-19T10:03:42.328Z,100504.05
2018-08-19T10:06:11.147Z,100508.14
2018-08-19T10:08:39.931Z,100504.87
2018-08-19T10:11:09.210Z,100501.04
2018-08-19T10:13:37.964Z,100506.19
2018-08-19T10:16:07.401Z,100502.55
2018-08-19T10:18:36.612Z,100511.19
2018-08-19T10:21:17.875Z,100519.96
2018-08-19T10:23:46.723Z,100520.97
2018-08-19T10:26:15.583Z,100515.48
2018-08-19T10:28:44.437Z,100518.92
2018-08-19T10:31:21.016Z,100511.69
2018-08-19T10:33:52.176Z,100517.86
2018-08-19T10:36:21.944Z,100525.28
2018-08-19T10:38:53.735Z,100520.05
2018-08-19T10:41:23.816Z,100512.20
2018-08-19T10:43:53.379Z,100515.28
2018-08-19T10:46:22.839Z,100511.16
2018-08-19T10:48:52.039Z,100501.11
2018-08-19T10:51:21.830Z,100513.16
2018-08-19T10:53:51.779Z,100512.35
2018-08-19T10:56:22.467Z,100512.61
2018-08-19T10:58:55.640Z,100498.14
2018-08-19T11:01:25.268Z,100500.12
2018-08-19T11:03:55.289Z,100500.73
2018-08-19T11:06:24.117Z,100504.00
2018-08-19T11:08:54.376Z,100517.18
2018-08-19T11:11:23.703Z,100500.59
2018-08-19T11:13:52.624Z,100495.98
2018-08-19T11:16:22.332Z,100486.95
2018-08-19T11:18:52.323Z,100492.13
2018-08-19T11:21:28.430Z,100489.36
2018-08-19T11:23:58.602Z,100505.18
2018-08-19T11:26:27.360Z,100493.67
2018-08-19T11:28:59.407Z,100505.63
2018-08-19T11:31:33.562Z,100501.25
2018-08-19T11:34:07.381Z,100501.53
2018-08-19T11:36:41.178Z,100498.31
2018-08-19T11:39:12.837Z,100502.64
2018-08-19T11:41:41.822Z,100490.63
2018-08-19T11:44:16.095Z,100493.63
2018-08-19T11:46:45.897Z,100486.22
2018-08-19T11:49:16.964Z,100486.16
2018-08-19T11:51:59.012Z,100492.28
2018-08-19T11:54:30.280Z,100492.89
2018-08-19T11:57:06.871Z,100488.53
2018-08-19T11:59:38.190Z,100494.53
2018-08-19T12:02:10.231Z,100496.78
2018-08-19T12:04:39.490Z,100492.95
2018-08-19T12:07:08.389Z,100485.78
2018-08-19T12:09:37.249Z,100482.16
2018-08-19T12:12:06.619Z,100490.31
2018-08-19T12:14:37.004Z,100506.21
2018-08-19T12:17:08.817Z,100489.69
2018-08-19T12:19:40.316Z,100493.45
2018-08-19T12:22:09.664Z,100494.55
2018-08-19T12:24:46.518Z,100492.71
2018-08-19T12:27:18.194Z,100489.31
2018-08-19T12:29:47.446Z,100491.20
2018-08-19T12:32:27.166Z,100497.22
2018-08-19T12:35:00.291Z,100511.25
2018-08-19T12:37:30.178Z,100505.98
2018-08-19T12:40:00.726Z,100502.05
2018-08-19T12:42:33.457Z,100496.80
2018-08-19T12:45:09.005Z,100479.70
2018-08-19T12:47:38.503Z,100486.27
2018-08-19T12:50:11.696Z,100483.04
2018-08-19T12:52:41.156Z,100491.11
2018-08-19T12:55:13.048Z,100495.59
2018-08-19T12:57:43.219Z,100491.92
2018-08-19T13:00:31.815Z,100486.38
2018-08-19T13:03:01.444Z,100474.63
2018-08-19T13:05:30.261Z,100470.71
2018-08-19T13:07:59.038Z,100474.07
2018-08-19T13:10:36.748Z,100476.48
2018-08-19T13:13:05.818Z,100475.78
2018-08-19T13:15:34.601Z,100479.53
2018-08-19T13:18:04.108Z,100488.86
2018-08-19T13:20:32.876Z,100468.59
2018-08-19T13:23:03.692Z,100484.20
2018-08-19T13:25:33.008Z,100472.19
2018-08-19T13:28:01.772Z,100466.92
2018-08-19T13:30:30.637Z,100466.50
2018-08-19T13:32:59.478Z,100455.55
2018-08-19T13:35:28.351Z,100445.23
2018-08-19T13:37:57.205Z,100455.23
2018-08-19T13:40:25.970Z,100458.82
2018-08-19T13:42:54.697Z,100466.48
2018-08-19T13:45:26.416Z,100477.95
2018-08-19T13:47:55.971Z,100473.65
2018-08-19T13:50:24.747Z,100473.66
2018-08-19T13:52:54.104Z,100461.38
2018-08-19T13:55:37.930Z,100472.48
2018-08-19T13:58:07.223Z,100467.59
2018-08-19T14:00:36.995Z,100456.89
2018-08-19T14:03:06.522Z,100453.21
2018-08-19T14:05:35.639Z,100458.30
2018-08-19T14:08:04.473Z,100454.17
2018-08-19T14:10:33.311Z,100452.33
2018-08-19T14:13:02.132Z,100468.80
2018-08-19T14:15:31.740Z,100465.09
2018-08-19T14:18:01.049Z,100457.42
2018-08-19T14:20:29.882Z,100461.19
2018-08-19T14:22:58.628Z,100458.66
2018-08-19T14:25:27.512Z,100454.82
2018-08-19T14:27:56.263Z,100456.44
2018-08-19T14:30:25.180Z,100458.09
2018-08-19T14:32:53.945Z,100465.38
2018-08-19T14:35:22.990Z,100467.42
2018-08-19T14:37:51.963Z,100462.34
2018-08-19T14:40:21.249Z,100453.43
2018-08-19T14:42:50.712Z,100453.77
2018-08-19T14:45:20.510Z,100450.68
2018-08-19T14:47:50.241Z,100457.23
2018-08-19T14:50:20.841Z,100459.82
2018-08-19T14:52:50.977Z,100454.98
2018-08-19T14:55:20.486Z,100456.53
2018-08-19T14:57:50.435Z,100451.48
2018-08-19T15:00:19.919Z,100451.59
2018-08-19T15:02:49.275Z,100454.97
2018-08-19T15:05:20.891Z,100445.54
2018-08-19T15:07:50.181Z,100444.21
2018-08-19T15:10:24.244Z,100452.20
2018-08-19T15:12:54.263Z,100447.50
2018-08-19T15:15:23.079Z,100446.47
2018-08-19T15:20:57.197Z,100448.41
2018-08-19T15:23:26.757Z,100452.89
2018-08-19T15:25:55.695Z,100447.26
2018-08-19T15:28:24.496Z,100450.55
2018-08-19T15:30:53.541Z,100451.66
2018-08-19T15:33:22.596Z,100448.70
2018-08-19T15:35:51.783Z,100456.39
2018-08-19T15:38:20.973Z,100453.92
2018-08-19T15:40:50.539Z,100462.69
2018-08-19T15:43:19.333Z,100466.85
2018-08-19T15:45:48.859Z,100457.59
2018-08-19T15:48:18.617Z,100460.87
2018-08-19T15:50:48.269Z,100457.28
2018-08-19T15:53:18.561Z,100456.63
2018-08-19T15:55:48.109Z,100453.84
2018-08-19T15:58:17.442Z,100445.34
2018-08-19T16:00:46.811Z,100461.95
2018-08-19T16:03:16.436Z,100459.83
2018-08-19T16:05:45.186Z,100463.13
2018-08-19T16:08:13.937Z,100458.81
2018-08-19T16:10:43.786Z,100462.09
2018-08-19T16:13:13.261Z,100453.95
2018-08-19T16:15:42.054Z,100464.67
2018-08-19T16:18:11.484Z,100461.42
2018-08-19T16:20:40.503Z,100458.20
2018-08-19T16:23:09.474Z,100457.19
2018-08-19T16:25:38.289Z,100467.87
2018-08-19T16:28:07.085Z,100464.66
2018-08-19T16:30:36.054Z,100455.14
2018-08-19T16:33:04.901Z,100460.63
2018-08-19T16:35:33.673Z,100454.94
2018-08-19T16:38:02.522Z,100454.94
2018-08-19T16:40:31.348Z,100452.50
2018-08-19T16:43:00.325Z,100447.09
2018-08-19T16:45:29.924Z,100446.27
2018-08-19T16:47:59.350Z,100447.14
2018-08-19T16:50:28.905Z,100442.52
2018-08-19T16:52:58.188Z,100439.80
2018-08-19T16:55:27.476Z,100436.28
2018-08-19T16:57:56.680Z,100440.11
2018-08-19T17:00:26.038Z,100436.33
2018-08-19T17:02:55.678Z,100435.23
2018-08-19T17:05:31.306Z,100439.33
2018-08-19T17:08:00.476Z,100438.53
2018-08-19T17:10:30.396Z,100429.00
2018-08-19T17:13:00.044Z,100432.80
2018-08-19T17:15:29.392Z,100435.80
2018-08-19T17:17:59.033Z,100438.01
2018-08-19T17:20:27.744Z,100439.64
2018-08-19T17:22:57.064Z,100430.92
2018-08-19T17:25:26.363Z,100438.81
2018-08-19T17:27:55.388Z,100438.02
2018-08-19T17:30:24.501Z,100434.19
2018-08-19T17:32:58.798Z,100442.91
2018-08-19T17:35:28.122Z,100446.45
2018-08-19T17:37:56.888Z,100445.38
2018-08-19T17:40:25.709Z,100446.46
2018-08-19T17:42:55.048Z,100441.00
2018-08-19T17:45:24.705Z,100442.34
2018-08-19T17:47:54.648Z,100440.69
2018-08-19T17:50:26.329Z,100445.84
2018-08-19T17:52:58.189Z,100450.20
2018-08-19T17:55:27.787Z,100449.38
2018-08-19T17:57:58.789Z,100446.08
2018-08-19T18:00:28.366Z,100447.15
2018-08-19T18:02:58.028Z,100442.81
2018-08-19T18:05:26.848Z,100445.52
2018-08-19T18:07:56.219Z,100440.06
2018-08-19T18:10:25.708Z,100435.70
2018-08-19T18:12:55.181Z,100434.63
2018-08-19T18:15:24.331Z,100439.27
2018-08-19T18:17:59.569Z,100434.64
2018-08-19T18:20:33.776Z,100441.97
2018-08-19T18:23:03.528Z,100440.31
2018-08-19T18:25:32.247Z,100441.94
2018-08-19T18:28:10.828Z,100428.36
2018-08-19T18:30:40.724Z,100437.32
2018-08-19T18:33:09.493Z,100437.05
2018-08-19T18:35:38.836Z,100443.01
2018-08-19T18:38:27.646Z,100449.52
2018-08-19T18:40:56.403Z,100445.14
2018-08-19T18:43:25.213Z,100449.15
2018-08-19T18:45:55.568Z,100451.80
2018-08-19T18:48:24.437Z,100446.59
2018-08-19T18:50:55.412Z,100450.13
2018-08-19T18:53:25.273Z,100451.68
2018-08-19T18:55:55.048Z,100448.95
2018-08-19T18:58:24.044Z,100449.45
2018-08-19T19:00:59.913Z,100454.02
2018-08-19T19:03:29.224Z,100449.39
2018-08-19T19:05:58.015Z,100451.00
2018-08-19T19:08:26.772Z,100445.78
2018-08-19T19:11:01.204Z,100443.87
2018-08-19T19:13:30.728Z,100440.29
2018-08-19T19:15:59.756Z,100436.19
2018-08-19T19:18:29.130Z,100435.63
2018-08-19T19:21:00.862Z,100440.78
2018-08-19T19:23:33.768Z,100430.44
2018-08-19T19:26:03.909Z,100430.08
2018-08-19T19:28:32.735Z,100433.61
2018-08-19T19:31:06.696Z,100432.20
2018-08-19T19:33:36.972Z,100435.97
2018-08-19T19:36:11.863Z,100427.27
2018-08-19T19:38:47.545Z,100422.27
2018-08-19T19:41:16.443Z,100422.23
2018-08-19T19:43:46.381Z,100423.50
2018-08-19T19:46:15.991Z,100421.30
2018-08-19T19:48:44.739Z,100422.84
2018-08-19T19:51:13.631Z,100423.36
2018-08-19T19:53:43.108Z,100418.44
2018-08-19T19:56:15.318Z,100417.27
2018-08-19T19:58:46.446Z,100415.34
2018-08-19T20:01:16.186Z,100416.34
2018-08-19T20:03:53.020Z,100406.26
2018-08-19T20:06:22.314Z,100406.16
2018-08-19T20:08:53.342Z,100410.72
2018-08-19T20:11:29.009Z,100402.84
2018-08-19T20:13:59.897Z,100402.52
2018-08-19T20:16:28.716Z,100405.73
2018-08-19T20:18:58.248Z,100406.80
2018-08-19T20:21:29.885Z,100397.56
2018-08-19T20:23:59.764Z,100398.42
2018-08-19T20:26:28.639Z,100405.23
2018-08-19T20:28:58.889Z,100400.92
2018-08-19T20:31:28.211Z,100402.59
2018-08-19T20:33:57.744Z,100402.06
2018-08-19T20:36:26.593Z,100396.64
2018-08-19T20:38:55.392Z,100390.15
2018-08-19T20:41:24.451Z,100391.53
2018-08-19T20:43:54.354Z,100389.96
2018-08-19T20:46:24.441Z,100387.28
2018-08-19T20:48:53.738Z,100384.29
2018-08-19T20:51:22.928Z,100385.11
2018-08-19T20:53:52.663Z,100385.39
2018-08-19T20:56:22.355Z,100382.69
2018-08-19T20:58:51.757Z,100381.23
2018-08-19T21:01:26.200Z,100379.27
2018-08-19T21:03:55.587Z,100372.78
2018-08-19T21:06:24.491Z,100374.10
2018-08-19T21:08:54.806Z,100370.83
2018-08-19T21:11:24.301Z,100370.83
2018-08-19T21:13:53.999Z,100360.23
2018-08-19T21:16:23.267Z,100359.70
2018-08-19T21:18:55.435Z,100359.16
2018-08-19T21:21:24.920Z,100360.80
2018-08-19T21:23:54.420Z,100354.59
2018-08-19T21:26:23.814Z,100360.02
2018-08-19T21:29:01.709Z,100354.59
2018-08-19T21:31:30.881Z,100352.71
2018-08-19T21:34:00.486Z,100350.03
2018-08-19T21:36:29.250Z,100344.89
2018-08-19T21:38:58.127Z,100343.00
2018-08-19T21:41:41.998Z,100338.69
2018-08-19T21:44:11.362Z,100339.00
2018-08-19T21:46:40.703Z,100334.63
2018-08-19T21:49:09.624Z,100333.77
2018-08-19T21:51:38.702Z,100327.25
2018-08-19T21:54:09.334Z,100332.67
2018-08-19T21:56:38.810Z,100328.89
2018-08-19T21:59:25.317Z,100329.98
2018-08-19T22:01:57.226Z,100319.72
2018-08-19T22:04:27.290Z,100317.55
2018-08-19T22:06:56.121Z,100312.38
2018-08-19T22:09:33.127Z,100308.59
2018-08-19T22:12:02.509Z,100296.91
2018-08-19T22:14:32.127Z,100298.80
2018-08-19T22:17:05.644Z,100291.20
2018-08-19T22:19:35.506Z,100294.41
2018-08-19T22:22:04.891Z,100294.41
2018-08-19T22:24:33.891Z,100287.86
2018-08-19T22:27:07.838Z,100292.47
2018-08-19T22:29:36.602Z,100289.75
2018-08-19T22:32:05.591Z,100289.50
2018-08-19T22:34:35.858Z,100285.95
2018-08-19T22:37:04.687Z,100292.15
2018-08-19T22:39:33.538Z,100281.06
2018-08-19T22:42:02.385Z,100279.42
2018-08-19T22:44:31.948Z,100284.02
2018-08-19T22:47:01.287Z,100279.92
2018-08-19T22:49:30.132Z,100278.32
2018-08-19T22:52:22.784Z,100271.02
2018-08-19T22:54:55.015Z,100272.94
2018-08-19T22:57:24.419Z,100271.30
2018-08-19T22:59:54.106Z,100270.76
2018-08-19T23:02:24.703Z,100274.26
2018-08-19T23:04:53.715Z,100268.87
2018-08-19T23:07:22.775Z,100269.12
2018-08-19T23:09:52.721Z,100260.73
2018-08-19T23:12:21.913Z,100258.59
2018-08-19T23:15:01.727Z,100252.92
2018-08-19T23:17:31.263Z,100245.87
2018-08-19T23:20:00.011Z,100247.50
2018-08-19T23:22:29.347Z,100246.72
2018-08-19T23:24:58.110Z,100241.05
2018-08-19T23:27:27.131Z,100238.61
2018-08-19T23:29:55.966Z,100237.00
2018-08-19T23:32:25.090Z,100238.90
2018-08-19T23:34:54.385Z,100235.66
2018-08-19T23:37:23.931Z,100232.41
2018-08-19T23:39:52.788Z,100227.50
2018-08-19T23:42:21.962Z,100231.28
2018-08-19T23:44:51.512Z,100219.90
2018-08-19T23:47:20.704Z,100219.62
2018-08-19T23:49:49.652Z,100214.42
2018-08-19T23:52:19.238Z,100210.62
2018-08-19T23:54:48.607Z,100208.98
2018-08-19T23:57:18.144Z,100216.04
2018-08-19T23:59:47.620Z,100210.05
